sensor_id;sensor_type;location;lat;lon;timestamp;pressure;altitude;pressure_sealevel;temperature;humidity
50292;BME280;36190;54.980;73.388;2022-07-01T00:01:00;99165.63;;;11.24;69.40
50292;BME280;36190;54.980;73.388;2022-07-01T00:03:29;99162.53;;;11.27;69.38
50292;BME280;36190;54.980;73.388;2022-07-01T00:05:56;99165.81;;;11.30;69.39
50292;BME280;36190;54.980;73.388;2022-07-01T00:08:24;99159.66;;;11.36;69.28
50292;BME280;36190;54.980;73.388;2022-07-01T00:10:51;99162.13;;;11.44;69.29
50292;BME280;36190;54.980;73.388;2022-07-01T00:13:18;99171.38;;;11.48;69.13
50292;BME280;36190;54.980;73.388;2022-07-01T00:15:46;99166.84;;;11.55;69.00
50292;BME280;36190;54.980;73.388;2022-07-01T00:18:13;99169.75;;;11.61;68.97
50292;BME280;36190;54.980;73.388;2022-07-01T00:20:42;99170.38;;;11.69;68.83
50292;BME280;36190;54.980;73.388;2022-07-01T00:23:09;99173.03;;;11.76;68.83
50292;BME280;36190;54.980;73.388;2022-07-01T00:25:39;99171.81;;;11.79;68.59
50292;BME280;36190;54.980;73.388;2022-07-01T00:28:06;99180.63;;;11.79;68.59
50292;BME280;36190;54.980;73.388;2022-07-01T00:30:33;99187.22;;;11.83;68.73
50292;BME280;36190;54.980;73.388;2022-07-01T00:33:01;99173.25;;;11.88;68.86
50292;BME280;36190;54.980;73.388;2022-07-01T00:35:29;99172.63;;;11.93;68.69
50292;BME280;36190;54.980;73.388;2022-07-01T00:37:57;99180.63;;;11.93;68.60
50292;BME280;36190;54.980;73.388;2022-07-01T00:40:25;99177.97;;;11.93;68.75
50292;BME280;36190;54.980;73.388;2022-07-01T00:42:53;99187.00;;;11.92;68.70
50292;BME280;36190;54.980;73.388;2022-07-01T00:45:20;99184.53;;;11.90;69.05
50292;BME280;36190;54.980;73.388;2022-07-01T00:47:49;99185.56;;;11.89;68.99
50292;BME280;36190;54.980;73.388;2022-07-01T00:50:17;99176.72;;;11.89;69.09
50292;BME280;36190;54.980;73.388;2022-07-01T00:52:45;99172.63;;;11.86;69.20
50292;BME280;36190;54.980;73.388;2022-07-01T00:55:14;99181.44;;;11.87;69.49
50292;BME280;36190;54.980;73.388;2022-07-01T00:57:43;99191.75;;;11.90;69.53
50292;BME280;36190;54.980;73.388;2022-07-01T01:00:13;99185.16;;;11.92;69.52
50292;BME280;36190;54.980;73.388;2022-07-01T01:02:41;99187.19;;;11.97;69.50
50292;BME280;36190;54.980;73.388;2022-07-01T01:05:09;99186.81;;;12.07;69.33
50292;BME280;36190;54.980;73.388;2022-07-01T01:07:36;99199.16;;;12.15;69.23
50292;BME280;36190;54.980;73.388;2022-07-01T01:10:05;99197.50;;;12.14;69.12
50292;BME280;36190;54.980;73.388;2022-07-01T01:12:34;99199.56;;;12.12;69.43
50292;BME280;36190;54.980;73.388;2022-07-01T01:15:02;99218.91;;;12.07;69.51
50292;BME280;36190;54.980;73.388;2022-07-01T01:17:30;99212.09;;;12.04;69.54
50292;BME280;36190;54.980;73.388;2022-07-01T01:19:57;99214.38;;;12.07;69.50
50292;BME280;36190;54.980;73.388;2022-07-01T01:22:26;99216.81;;;12.09;69.50
50292;BME280;36190;54.980;73.388;2022-07-01T01:24:57;99216.63;;;12.10;69.54
50292;BME280;36190;54.980;73.388;2022-07-01T01:27:25;99212.53;;;12.15;69.56
50292;BME280;36190;54.980;73.388;2022-07-01T01:29:52;99198.94;;;12.16;69.50
50292;BME280;36190;54.980;73.388;2022-07-01T01:32:20;99203.03;;;12.19;69.63
50292;BME280;36190;54.980;73.388;2022-07-01T01:34:47;99191.53;;;12.25;69.53
50292;BME280;36190;54.980;73.388;2022-07-01T01:37:15;99203.63;;;12.34;69.49
50292;BME280;36190;54.980;73.388;2022-07-01T01:39:44;99202.41;;;12.37;69.39
50292;BME280;36190;54.980;73.388;2022-07-01T01:42:12;99200.94;;;12.41;69.33
50292;BME280;36190;54.980;73.388;2022-07-01T01:44:39;99204.44;;;12.42;69.31
50292;BME280;36190;54.980;73.388;2022-07-01T01:47:07;99228.28;;;12.50;69.30
50292;BME280;36190;54.980;73.388;2022-07-01T01:49:34;99251.72;;;12.61;68.92
50292;BME280;36190;54.980;73.388;2022-07-01T01:52:02;99216.94;;;12.61;68.92
50292;BME280;36190;54.980;73.388;2022-07-01T01:54:30;99210.53;;;12.62;69.07
50292;BME280;36190;54.980;73.388;2022-07-01T01:56:59;99226.41;;;12.64;69.00
50292;BME280;36190;54.980;73.388;2022-07-01T01:59:27;99216.72;;;12.63;69.02
50292;BME280;36190;54.980;73.388;2022-07-01T02:01:54;99227.41;;;12.70;68.88
50292;BME280;36190;54.980;73.388;2022-07-01T02:04:22;99201.28;;;12.72;68.77
50292;BME280;36190;54.980;73.388;2022-07-01T02:06:50;99211.75;;;12.80;68.62
50292;BME280;36190;54.980;73.388;2022-07-01T02:09:17;99223.22;;;12.87;68.72
50292;BME280;36190;54.980;73.388;2022-07-01T02:11:45;99207.13;;;13.01;68.36
50292;BME280;36190;54.980;73.388;2022-07-01T02:14:14;99243.94;;;13.12;67.92
50292;BME280;36190;54.980;73.388;2022-07-01T02:16:41;99219.81;;;13.19;67.76
50292;BME280;36190;54.980;73.388;2022-07-01T02:19:09;99246.13;;;13.29;67.73
50292;BME280;36190;54.980;73.388;2022-07-01T02:21:36;99225.50;;;13.29;67.60
50292;BME280;36190;54.980;73.388;2022-07-01T02:24:04;99216.91;;;13.20;67.94
50292;BME280;36190;54.980;73.388;2022-07-01T02:26:32;99228.88;;;13.11;68.32
50292;BME280;36190;54.980;73.388;2022-07-01T02:28:59;99237.75;;;13.12;68.41
50292;BME280;36190;54.980;73.388;2022-07-01T02:31:28;99224.38;;;13.12;68.56
50292;BME280;36190;54.980;73.388;2022-07-01T02:33:56;99229.69;;;13.18;68.28
50292;BME280;36190;54.980;73.388;2022-07-01T02:36:23;99241.63;;;13.23;68.49
50292;BME280;36190;54.980;73.388;2022-07-01T02:38:51;99253.97;;;13.24;68.48
50292;BME280;36190;54.980;73.388;2022-07-01T02:41:18;99248.38;;;13.32;68.49
50292;BME280;36190;54.980;73.388;2022-07-01T02:43:46;99254.66;;;13.44;68.31
50292;BME280;36190;54.980;73.388;2022-07-01T02:46:13;99253.38;;;13.60;67.98
50292;BME280;36190;54.980;73.388;2022-07-01T02:48:42;99252.84;;;13.77;67.73
50292;BME280;36190;54.980;73.388;2022-07-01T02:51:10;99259.78;;;13.92;67.36
50292;BME280;36190;54.980;73.388;2022-07-01T02:53:37;99250.19;;;14.02;67.12
50292;BME280;36190;54.980;73.388;2022-07-01T02:56:04;99242.31;;;14.08;67.14
50292;BME280;36190;54.980;73.388;2022-07-01T02:58:32;99252.16;;;14.14;67.09
50292;BME280;36190;54.980;73.388;2022-07-01T03:00:59;99241.44;;;14.14;67.06
50292;BME280;36190;54.980;73.388;2022-07-01T03:03:27;99253.41;;;14.11;67.17
50292;BME280;36190;54.980;73.388;2022-07-01T03:05:56;99259.25;;;14.01;67.38
50292;BME280;36190;54.980;73.388;2022-07-01T03:08:24;99275.03;;;13.91;67.67
50292;BME280;36190;54.980;73.388;2022-07-01T03:10:51;99265.88;;;13.73;67.96
50292;BME280;36190;54.980;73.388;2022-07-01T03:13:19;99276.91;;;13.58;68.59
50292;BME280;36190;54.980;73.388;2022-07-01T03:15:46;99263.84;;;13.30;69.10
50292;BME280;36190;54.980;73.388;2022-07-01T03:18:13;99283.72;;;13.02;69.88
50292;BME280;36190;54.980;73.388;2022-07-01T03:20:41;99274.50;;;12.84;70.61
50292;BME280;36190;54.980;73.388;2022-07-01T03:23:10;99279.50;;;12.74;71.04
50292;BME280;36190;54.980;73.388;2022-07-01T03:25:37;99275.19;;;12.73;71.49
50292;BME280;36190;54.980;73.388;2022-07-01T03:28:04;99292.47;;;12.70;71.75
50292;BME280;36190;54.980;73.388;2022-07-01T03:30:32;99270.22;;;12.70;72.06
50292;BME280;36190;54.980;73.388;2022-07-01T03:33:00;99283.59;;;12.70;72.59
50292;BME280;36190;54.980;73.388;2022-07-01T03:35:27;99302.38;;;12.63;73.17
50292;BME280;36190;54.980;73.388;2022-07-01T03:38:05;99284.25;;;12.58;73.66
50292;BME280;36190;54.980;73.388;2022-07-01T03:40:35;99285.88;;;12.66;74.02
50292;BME280;36190;54.980;73.388;2022-07-01T03:43:02;99293.91;;;12.73;73.96
50292;BME280;36190;54.980;73.388;2022-07-01T03:45:30;99292.44;;;12.77;74.00
50292;BME280;36190;54.980;73.388;2022-07-01T03:47:58;99299.00;;;12.88;73.86
50292;BME280;36190;54.980;73.388;2022-07-01T03:50:26;99301.66;;;12.95;73.69
50292;BME280;36190;54.980;73.388;2022-07-01T03:52:53;99291.56;;;13.03;73.42
50292;BME280;36190;54.980;73.388;2022-07-01T03:55:37;99297.28;;;13.14;73.42
50292;BME280;36190;54.980;73.388;2022-07-01T03:58:05;99299.50;;;13.24;73.02
50292;BME280;36190;54.980;73.388;2022-07-01T04:00:34;99291.81;;;13.34;72.72
50292;BME280;36190;54.980;73.388;2022-07-01T04:03:02;99294.09;;;13.37;72.77
50292;BME280;36190;54.980;73.388;2022-07-01T04:05:29;99301.91;;;13.45;72.42
50292;BME280;36190;54.980;73.388;2022-07-01T04:07:58;99296.56;;;13.45;72.32
50292;BME280;36190;54.980;73.388;2022-07-01T04:10:26;99307.66;;;13.42;72.35
50292;BME280;36190;54.980;73.388;2022-07-01T04:12:55;99309.13;;;13.38;72.54
50292;BME280;36190;54.980;73.388;2022-07-01T04:15:22;99316.53;;;13.36;72.60
50292;BME280;36190;54.980;73.388;2022-07-01T04:17:50;99317.81;;;13.27;72.92
50292;BME280;36190;54.980;73.388;2022-07-01T04:20:17;99315.81;;;13.15;73.22
50292;BME280;36190;54.980;73.388;2022-07-01T04:22:45;99314.59;;;13.11;73.52
50292;BME280;36190;54.980;73.388;2022-07-01T04:25:12;99318.28;;;13.10;73.76
50292;BME280;36190;54.980;73.388;2022-07-01T04:27:39;99325.72;;;13.08;74.02
50292;BME280;36190;54.980;73.388;2022-07-01T04:30:09;99323.88;;;13.02;74.28
50292;BME280;36190;54.980;73.388;2022-07-01T04:32:37;99318.09;;;13.12;74.05
50292;BME280;36190;54.980;73.388;2022-07-01T04:35:05;99326.09;;;13.18;74.01
50292;BME280;36190;54.980;73.388;2022-07-01T04:37:32;99326.09;;;13.18;73.92
50292;BME280;36190;54.980;73.388;2022-07-01T04:39:59;99330.25;;;13.07;74.18
50292;BME280;36190;54.980;73.388;2022-07-01T04:42:27;99343.50;;;12.96;74.58
50292;BME280;36190;54.980;73.388;2022-07-01T04:44:53;99330.28;;;12.87;74.78
50292;BME280;36190;54.980;73.388;2022-07-01T04:47:22;99324.16;;;12.80;74.87
50292;BME280;36190;54.980;73.388;2022-07-01T04:49:49;99337.31;;;12.82;75.06
50292;BME280;36190;54.980;73.388;2022-07-01T04:52:17;99334.00;;;12.86;75.13
50292;BME280;36190;54.980;73.388;2022-07-01T04:54:44;99354.38;;;12.87;74.98
50292;BME280;36190;54.980;73.388;2022-07-01T04:57:12;99337.72;;;12.85;74.91
50292;BME280;36190;54.980;73.388;2022-07-01T04:59:39;99337.31;;;12.88;75.04
50292;BME280;36190;54.980;73.388;2022-07-01T05:02:07;99345.97;;;12.90;74.90
50292;BME280;36190;54.980;73.388;2022-07-01T05:04:35;99344.31;;;12.89;74.96
50292;BME280;36190;54.980;73.388;2022-07-01T05:07:03;99344.31;;;12.89;74.71
50292;BME280;36190;54.980;73.388;2022-07-01T05:09:30;99338.97;;;12.89;74.79
50292;BME280;36190;54.980;73.388;2022-07-01T05:11:58;99348.63;;;12.90;74.69
50292;BME280;36190;54.980;73.388;2022-07-01T05:14:25;99352.13;;;12.98;74.71
50292;BME280;36190;54.980;73.388;2022-07-01T05:16:53;99343.03;;;13.05;74.65
50292;BME280;36190;54.980;73.388;2022-07-01T05:19:20;99343.41;;;13.16;74.32
50292;BME280;36190;54.980;73.388;2022-07-01T05:22:07;99352.84;;;13.32;74.07
50292;BME280;36190;54.980;73.388;2022-07-01T05:24:35;99345.00;;;13.37;73.71
50292;BME280;36190;54.980;73.388;2022-07-01T05:27:03;99350.16;;;13.45;73.54
50292;BME280;36190;54.980;73.388;2022-07-01T05:29:31;99349.50;;;13.50;73.34
50292;BME280;36190;54.980;73.388;2022-07-01T05:31:58;99345.75;;;13.58;73.27
50292;BME280;36190;54.980;73.388;2022-07-01T05:34:25;99344.72;;;13.59;73.13
50292;BME280;36190;54.980;73.388;2022-07-01T05:36:53;99348.44;;;13.58;73.15
50292;BME280;36190;54.980;73.388;2022-07-01T05:39:22;99358.09;;;13.59;73.17
50292;BME280;36190;54.980;73.388;2022-07-01T05:41:49;99358.09;;;13.59;73.17
50292;BME280;36190;54.980;73.388;2022-07-01T05:44:17;99359.75;;;13.60;73.23
50292;BME280;36190;54.980;73.388;2022-07-01T05:46:44;99361.38;;;13.61;73.08
50292;BME280;36190;54.980;73.388;2022-07-01T05:49:11;99380.78;;;13.63;73.02
50292;BME280;36190;54.980;73.388;2022-07-01T05:51:39;99377.47;;;13.61;72.83
50292;BME280;36190;54.980;73.388;2022-07-01T05:54:07;99371.75;;;13.57;72.55
50292;BME280;36190;54.980;73.388;2022-07-01T05:56:35;99373.38;;;13.52;72.69
50292;BME280;36190;54.980;73.388;2022-07-01T05:59:03;99373.38;;;13.52;72.59
50292;BME280;36190;54.980;73.388;2022-07-01T06:01:30;99379.78;;;13.51;72.66
50292;BME280;36190;54.980;73.388;2022-07-01T06:03:58;99381.03;;;13.41;72.81
50292;BME280;36190;54.980;73.388;2022-07-01T06:06:25;99380.84;;;13.36;73.08
50292;BME280;36190;54.980;73.388;2022-07-01T06:08:52;99370.13;;;13.36;73.09
50292;BME280;36190;54.980;73.388;2022-07-01T06:11:20;99383.13;;;13.39;73.00
50292;BME280;36190;54.980;73.388;2022-07-01T06:13:49;99376.72;;;13.40;73.03
50292;BME280;36190;54.980;73.388;2022-07-01T06:16:16;99388.28;;;13.41;72.86
50292;BME280;36190;54.980;73.388;2022-07-01T06:18:43;99371.34;;;13.47;72.92
50292;BME280;36190;54.980;73.388;2022-07-01T06:21:11;99371.69;;;13.64;72.94
50292;BME280;36190;54.980;73.388;2022-07-01T06:23:40;99376.91;;;13.91;72.29
50292;BME280;36190;54.980;73.388;2022-07-01T06:26:08;99361.88;;;14.22;71.61
50292;BME280;36190;54.980;73.388;2022-07-01T06:28:35;99366.47;;;14.66;70.84
50292;BME280;36190;54.980;73.388;2022-07-01T06:31:04;99375.66;;;15.02;69.57
50292;BME280;36190;54.980;73.388;2022-07-01T06:33:32;99369.19;;;15.29;68.87
50292;BME280;36190;54.980;73.388;2022-07-01T06:35:59;99371.16;;;15.52;68.28
50292;BME280;36190;54.980;73.388;2022-07-01T06:38:28;99380.41;;;15.75;67.60
50292;BME280;36190;54.980;73.388;2022-07-01T06:40:57;99365.69;;;15.89;66.93
50292;BME280;36190;54.980;73.388;2022-07-01T06:43:42;99372.19;;;16.00;66.46
50292;BME280;36190;54.980;73.388;2022-07-01T06:46:11;99378.72;;;15.92;66.66
50292;BME280;36190;54.980;73.388;2022-07-01T06:48:38;99376.09;;;15.86;66.96
50292;BME280;36190;54.980;73.388;2022-07-01T06:51:06;99379.56;;;15.74;67.16
50292;BME280;36190;54.980;73.388;2022-07-01T06:53:33;99380.25;;;15.70;67.37
50292;BME280;36190;54.980;73.388;2022-07-01T06:56:01;99368.22;;;15.72;67.34
50292;BME280;36190;54.980;73.388;2022-07-01T06:58:28;99369.06;;;15.85;67.35
50292;BME280;36190;54.980;73.388;2022-07-01T07:00:56;99383.00;;;16.12;66.65
50292;BME280;36190;54.980;73.388;2022-07-01T07:03:25;99381.66;;;16.45;65.77
50292;BME280;36190;54.980;73.388;2022-07-01T07:05:52;99387.28;;;16.44;65.57
50292;BME280;36190;54.980;73.388;2022-07-01T07:08:20;99387.34;;;16.25;65.88
50292;BME280;36190;54.980;73.388;2022-07-01T07:10:47;99408.25;;;16.11;66.09
50292;BME280;36190;54.980;73.388;2022-07-01T07:13:14;99386.34;;;15.95;66.60
50292;BME280;36190;54.980;73.388;2022-07-01T07:15:42;99381.34;;;15.80;67.00
50292;BME280;36190;54.980;73.388;2022-07-01T07:18:10;99379.78;;;15.73;67.46
50292;BME280;36190;54.980;73.388;2022-07-01T07:20:39;99381.50;;;15.67;67.88
50292;BME280;36190;54.980;73.388;2022-07-01T07:23:06;99393.00;;;15.74;67.79
50292;BME280;36190;54.980;73.388;2022-07-01T07:25:34;99385.09;;;15.79;67.76
50292;BME280;36190;54.980;73.388;2022-07-01T07:28:01;99382.16;;;15.81;67.82
50292;BME280;36190;54.980;73.388;2022-07-01T07:30:29;99380.19;;;15.88;67.75
50292;BME280;36190;54.980;73.388;2022-07-01T07:32:56;99378.78;;;15.86;67.69
50292;BME280;36190;54.980;73.388;2022-07-01T07:35:24;99381.78;;;15.77;67.95
50292;BME280;36190;54.980;73.388;2022-07-01T07:37:53;99407.28;;;15.75;68.21
50292;BME280;36190;54.980;73.388;2022-07-01T07:40:20;99384.72;;;15.76;68.24
50292;BME280;36190;54.980;73.388;2022-07-01T07:42:48;99380.50;;;15.80;68.40
50292;BME280;36190;54.980;73.388;2022-07-01T07:45:15;99391.41;;;15.85;68.38
50292;BME280;36190;54.980;73.388;2022-07-01T07:47:44;99400.41;;;15.79;68.52
50292;BME280;36190;54.980;73.388;2022-07-01T07:50:12;99402.59;;;15.70;68.49
50292;BME280;36190;54.980;73.388;2022-07-01T07:52:40;99413.88;;;15.60;68.85
50292;BME280;36190;54.980;73.388;2022-07-01T07:55:09;99401.31;;;15.54;69.18
50292;BME280;36190;54.980;73.388;2022-07-01T07:57:38;99405.22;;;15.58;69.34
50292;BME280;36190;54.980;73.388;2022-07-01T08:00:07;99395.91;;;15.73;69.14
50292;BME280;36190;54.980;73.388;2022-07-01T08:02:35;99406.03;;;15.89;68.78
50292;BME280;36190;54.980;73.388;2022-07-01T08:05:03;99405.91;;;16.03;68.39
50292;BME280;36190;54.980;73.388;2022-07-01T08:07:34;99405.34;;;16.13;68.28
50292;BME280;36190;54.980;73.388;2022-07-01T08:10:03;99405.06;;;16.33;67.55
50292;BME280;36190;54.980;73.388;2022-07-01T08:12:32;99424.72;;;16.45;66.99
50292;BME280;36190;54.980;73.388;2022-07-01T08:15:00;99403.00;;;16.59;66.65
50292;BME280;36190;54.980;73.388;2022-07-01T08:17:27;99400.41;;;16.88;66.13
50292;BME280;36190;54.980;73.388;2022-07-01T08:19:55;99408.84;;;17.27;65.35
50292;BME280;36190;54.980;73.388;2022-07-01T08:22:22;99406.22;;;17.56;64.46
50292;BME280;36190;54.980;73.388;2022-07-01T08:24:50;99419.53;;;17.75;64.08
50292;BME280;36190;54.980;73.388;2022-07-01T08:27:17;99422.59;;;17.67;63.71
50292;BME280;36190;54.980;73.388;2022-07-01T08:29:46;99418.00;;;17.38;64.30
50292;BME280;36190;54.980;73.388;2022-07-01T08:32:14;99416.03;;;17.10;64.78
50292;BME280;36190;54.980;73.388;2022-07-01T08:34:41;99416.00;;;16.86;65.65
50292;BME280;36190;54.980;73.388;2022-07-01T08:37:09;99413.28;;;16.62;66.07
50292;BME280;36190;54.980;73.388;2022-07-01T08:39:36;99413.72;;;16.35;66.81
50292;BME280;36190;54.980;73.388;2022-07-01T08:42:06;99418.22;;;16.22;67.33
50292;BME280;36190;54.980;73.388;2022-07-01T08:44:34;99425.69;;;16.08;67.57
50292;BME280;36190;54.980;73.388;2022-07-01T08:47:04;99403.16;;;15.91;68.09
50292;BME280;36190;54.980;73.388;2022-07-01T08:49:32;99408.59;;;16.03;68.19
50292;BME280;36190;54.980;73.388;2022-07-01T08:51:59;99418.97;;;16.30;67.78
50292;BME280;36190;54.980;73.388;2022-07-01T08:54:26;99422.19;;;16.50;67.47
50292;BME280;36190;54.980;73.388;2022-07-01T08:56:54;99412.00;;;16.53;67.26
50292;BME280;36190;54.980;73.388;2022-07-01T08:59:22;99439.50;;;16.55;67.24
50292;BME280;36190;54.980;73.388;2022-07-01T09:01:55;99420.78;;;16.60;67.34
50292;BME280;36190;54.980;73.388;2022-07-01T09:04:24;99414.00;;;16.69;67.22
50292;BME280;36190;54.980;73.388;2022-07-01T09:07:00;99415.56;;;16.89;66.96
50292;BME280;36190;54.980;73.388;2022-07-01T09:09:27;99416.72;;;17.17;66.40
50292;BME280;36190;54.980;73.388;2022-07-01T09:11:55;99420.22;;;17.41;65.86
50292;BME280;36190;54.980;73.388;2022-07-01T09:14:24;99413.94;;;17.65;65.30
50292;BME280;36190;54.980;73.388;2022-07-01T09:16:53;99409.75;;;17.86;64.63
50292;BME280;36190;54.980;73.388;2022-07-01T09:19:22;99412.34;;;18.22;63.77
50292;BME280;36190;54.980;73.388;2022-07-01T09:21:53;99409.56;;;18.34;63.61
50292;BME280;36190;54.980;73.388;2022-07-01T09:24:24;99424.63;;;18.47;63.23
50292;BME280;36190;54.980;73.388;2022-07-01T09:26:53;99425.63;;;18.58;63.05
50292;BME280;36190;54.980;73.388;2022-07-01T09:29:20;99413.50;;;18.77;62.67
50292;BME280;36190;54.980;73.388;2022-07-01T09:31:52;99416.88;;;19.02;62.27
50292;BME280;36190;54.980;73.388;2022-07-01T09:34:19;99418.41;;;19.37;61.66
50292;BME280;36190;54.980;73.388;2022-07-01T09:36:56;99407.41;;;19.66;61.07
50292;BME280;36190;54.980;73.388;2022-07-01T09:39:25;99425.00;;;19.91;59.99
50292;BME280;36190;54.980;73.388;2022-07-01T09:41:54;99430.19;;;19.70;60.16
50292;BME280;36190;54.980;73.388;2022-07-01T09:44:22;99427.53;;;19.31;60.85
50292;BME280;36190;54.980;73.388;2022-07-01T09:46:54;99441.50;;;18.88;61.68
50292;BME280;36190;54.980;73.388;2022-07-01T09:49:22;99442.63;;;18.58;62.58
50292;BME280;36190;54.980;73.388;2022-07-01T09:51:51;99440.34;;;18.33;63.30
50292;BME280;36190;54.980;73.388;2022-07-01T09:54:20;99472.50;;;18.05;64.15
50292;BME280;36190;54.980;73.388;2022-07-01T09:56:47;99448.16;;;17.76;64.86
50292;BME280;36190;54.980;73.388;2022-07-01T09:59:15;99437.66;;;17.63;65.53
50292;BME280;36190;54.980;73.388;2022-07-01T10:01:44;99441.88;;;17.58;65.86
50292;BME280;36190;54.980;73.388;2022-07-01T10:04:13;99451.00;;;17.57;66.13
50292;BME280;36190;54.980;73.388;2022-07-01T10:07:13;99452.06;;;17.56;66.10
50292;BME280;36190;54.980;73.388;2022-07-01T10:10:04;99447.13;;;17.53;66.39
50292;BME280;36190;54.980;73.388;2022-07-01T10:12:39;99448.31;;;17.57;66.33
50292;BME280;36190;54.980;73.388;2022-07-01T10:15:10;99446.16;;;17.71;66.22
50292;BME280;36190;54.980;73.388;2022-07-01T10:17:43;99443.34;;;17.78;65.98
50292;BME280;36190;54.980;73.388;2022-07-01T10:20:13;99440.66;;;17.78;65.96
50292;BME280;36190;54.980;73.388;2022-07-01T10:22:42;99441.31;;;17.85;65.86
50292;BME280;36190;54.980;73.388;2022-07-01T10:25:32;99447.72;;;18.08;65.79
50292;BME280;36190;54.980;73.388;2022-07-01T10:28:27;99467.97;;;18.23;65.61
50292;BME280;36190;54.980;73.388;2022-07-01T10:30:58;99453.06;;;18.20;65.65
50292;BME280;36190;54.980;73.388;2022-07-01T10:33:37;99455.41;;;18.17;65.65
50292;BME280;36190;54.980;73.388;2022-07-01T10:36:07;99470.56;;;18.18;65.76
50292;BME280;36190;54.980;73.388;2022-07-01T10:38:36;99467.50;;;18.14;65.63
50292;BME280;36190;54.980;73.388;2022-07-01T10:41:25;99468.13;;;18.16;65.54
50292;BME280;36190;54.980;73.388;2022-07-01T10:43:54;99465.47;;;18.04;65.60
50292;BME280;36190;54.980;73.388;2022-07-01T10:46:38;99466.66;;;17.84;66.17
50292;BME280;36190;54.980;73.388;2022-07-01T10:49:07;99480.31;;;17.66;66.59
50292;BME280;36190;54.980;73.388;2022-07-01T10:51:44;99472.59;;;17.57;66.90
50292;BME280;36190;54.980;73.388;2022-07-01T10:54:12;99476.34;;;17.56;67.01
50292;BME280;36190;54.980;73.388;2022-07-01T10:56:41;99474.00;;;17.60;66.78
50292;BME280;36190;54.980;73.388;2022-07-01T10:59:17;99468.09;;;17.75;66.64
50292;BME280;36190;54.980;73.388;2022-07-01T11:01:45;99474.47;;;17.98;66.05
50292;BME280;36190;54.980;73.388;2022-07-01T11:04:12;99469.81;;;18.22;65.26
50292;BME280;36190;54.980;73.388;2022-07-01T11:06:39;99468.00;;;18.40;64.96
50292;BME280;36190;54.980;73.388;2022-07-01T11:09:12;99471.44;;;18.52;64.53
50292;BME280;36190;54.980;73.388;2022-07-01T11:11:41;99476.03;;;18.52;64.54
50292;BME280;36190;54.980;73.388;2022-07-01T11:14:08;99480.91;;;18.38;64.75
50292;BME280;36190;54.980;73.388;2022-07-01T11:16:35;99478.09;;;18.16;65.24
50292;BME280;36190;54.980;73.388;2022-07-01T11:19:06;99476.13;;;17.99;65.71
50292;BME280;36190;54.980;73.388;2022-07-01T11:21:33;99477.75;;;18.00;65.83
50292;BME280;36190;54.980;73.388;2022-07-01T11:24:00;99489.13;;;18.02;65.62
50292;BME280;36190;54.980;73.388;2022-07-01T11:26:28;99486.81;;;17.94;65.59
50292;BME280;36190;54.980;73.388;2022-07-01T11:28:57;99488.03;;;17.74;65.80
50292;BME280;36190;54.980;73.388;2022-07-01T11:31:29;99477.50;;;17.60;66.26
50292;BME280;36190;54.980;73.388;2022-07-01T11:33:57;99474.94;;;17.54;66.26
50292;BME280;36190;54.980;73.388;2022-07-01T11:36:24;99485.00;;;17.58;66.40
50292;BME280;36190;54.980;73.388;2022-07-01T11:39:09;99473.06;;;17.54;66.59
50292;BME280;36190;54.980;73.388;2022-07-01T11:41:55;99481.03;;;17.49;66.75
50292;BME280;36190;54.980;73.388;2022-07-01T11:44:32;99476.59;;;17.43;67.26
50292;BME280;36190;54.980;73.388;2022-07-01T11:47:00;99483.75;;;17.37;67.33
50292;BME280;36190;54.980;73.388;2022-07-01T11:49:27;99480.84;;;17.39;67.24
50292;BME280;36190;54.980;73.388;2022-07-01T11:51:56;99475.78;;;17.30;67.20
50292;BME280;36190;54.980;73.388;2022-07-01T11:54:24;99488.91;;;17.39;67.26
50292;BME280;36190;54.980;73.388;2022-07-01T11:56:52;99483.41;;;17.34;67.43
50292;BME280;36190;54.980;73.388;2022-07-01T11:59:20;99477.78;;;17.23;67.57
50292;BME280;36190;54.980;73.388;2022-07-01T12:01:55;99495.13;;;17.27;67.86
50292;BME280;36190;54.980;73.388;2022-07-01T12:04:22;99510.13;;;17.23;67.82
50292;BME280;36190;54.980;73.388;2022-07-01T12:06:50;99492.41;;;17.15;67.96
50292;BME280;36190;54.980;73.388;2022-07-01T12:09:18;99503.09;;;17.10;68.11
50292;BME280;36190;54.980;73.388;2022-07-01T12:11:48;99505.44;;;17.07;68.31
50292;BME280;36190;54.980;73.388;2022-07-01T12:14:20;99489.84;;;17.09;68.33
50292;BME280;36190;54.980;73.388;2022-07-01T12:16:51;99483.63;;;17.08;68.46
50292;BME280;36190;54.980;73.388;2022-07-01T12:19:26;99495.00;;;17.10;68.50
50292;BME280;36190;54.980;73.388;2022-07-01T12:21:55;99494.66;;;17.07;68.42
50292;BME280;36190;54.980;73.388;2022-07-01T12:24:23;99503.19;;;17.03;68.40
50292;BME280;36190;54.980;73.388;2022-07-01T12:26:53;99503.28;;;16.97;68.87
50292;BME280;36190;54.980;73.388;2022-07-01T12:29:22;99496.47;;;16.94;69.12
50292;BME280;36190;54.980;73.388;2022-07-01T12:31:58;99503.16;;;16.91;69.33
50292;BME280;36190;54.980;73.388;2022-07-01T12:34:42;99501.50;;;16.90;69.60
50292;BME280;36190;54.980;73.388;2022-07-01T12:37:11;99511.56;;;16.83;69.78
50292;BME280;36190;54.980;73.388;2022-07-01T12:39:44;99514.16;;;16.78;70.03
50292;BME280;36190;54.980;73.388;2022-07-01T12:42:26;99533.69;;;16.73;70.14
50292;BME280;36190;54.980;73.388;2022-07-01T12:44:55;99517.25;;;16.63;70.42
50292;BME280;36190;54.980;73.388;2022-07-01T12:47:25;99530.59;;;16.58;70.67
50292;BME280;36190;54.980;73.388;2022-07-01T12:50:15;99551.41;;;16.50;70.90
50292;BME280;36190;54.980;73.388;2022-07-01T12:52:44;99522.59;;;16.39;70.99
50292;BME280;36190;54.980;73.388;2022-07-01T12:55:23;99538.13;;;16.37;71.21
50292;BME280;36190;54.980;73.388;2022-07-01T12:57:52;99535.44;;;16.37;71.19
50292;BME280;36190;54.980;73.388;2022-07-01T13:00:22;99533.34;;;16.39;71.26